createdAt,value
2023-03-20T00:01:24.290Z,4.77
2023-03-20T00:03:53.876Z,8.67
2023-03-20T00:06:26.282Z,7.03
2023-03-20T00:08:57.478Z,5.63
2023-03-20T00:11:31.501Z,5.50
2023-03-20T00:14:02.618Z,5.93
2023-03-20T00:16:34.101Z,11.93
2023-03-20T00:19:03.460Z,5.60
2023-03-20T00:22:03.586Z,4.50
2023-03-20T00:24:32.641Z,6.50
2023-03-20T00:27:02.858Z,5.40
2023-03-20T00:29:35.217Z,5.70
2023-03-20T00:32:04.362Z,8.10
2023-03-20T00:34:33.594Z,10.30
2023-03-20T00:37:03.991Z,5.20
2023-03-20T00:39:33.113Z,7.63
2023-03-20T00:42:06.270Z,4.77
2023-03-20T00:44:41.812Z,5.97
2023-03-20T00:47:20.200Z,5.77
2023-03-20T00:49:51.098Z,5.50
2023-03-20T00:52:23.198Z,5.50
2023-03-20T00:54:53.786Z,6.03
2023-03-20T00:57:26.746Z,7.43
2023-03-20T01:00:00.525Z,6.00
2023-03-20T01:02:31.474Z,10.10
2023-03-20T01:05:03.702Z,7.60
2023-03-20T01:07:34.074Z,6.70
2023-03-20T01:10:05.393Z,7.27
2023-03-20T01:12:34.602Z,6.93
2023-03-20T01:15:03.621Z,7.50
2023-03-20T01:17:32.595Z,7.17
2023-03-20T01:20:01.584Z,7.75
2023-03-20T01:22:30.781Z,7.28
2023-03-20T01:26:00.656Z,7.80
2023-03-20T01:28:32.729Z,5.90
2023-03-20T01:31:01.768Z,6.17
2023-03-20T01:33:31.516Z,6.28
2023-03-20T01:36:00.647Z,7.78
2023-03-20T01:38:30.260Z,7.15
2023-03-20T01:41:06.243Z,7.80
2023-03-20T01:43:38.150Z,7.15
2023-03-20T01:46:18.753Z,6.70
2023-03-20T01:49:09.659Z,7.70
2023-03-20T01:51:39.091Z,11.23
2023-03-20T01:54:17.642Z,9.80
2023-03-20T01:56:58.787Z,7.70
2023-03-20T01:59:34.856Z,7.13
2023-03-20T02:02:05.902Z,11.13
2023-03-20T02:04:38.087Z,8.65
2023-03-20T02:07:14.970Z,7.07
2023-03-20T02:09:49.519Z,6.60
2023-03-20T02:12:24.698Z,9.88
2023-03-20T02:14:56.299Z,6.23
2023-03-20T02:17:44.815Z,8.48
2023-03-20T02:20:28.730Z,6.67
2023-03-20T02:23:39.100Z,6.83
2023-03-20T02:26:36.561Z,7.03
2023-03-20T02:29:58.291Z,8.10
2023-03-20T02:33:10.731Z,10.67
2023-03-20T02:36:17.822Z,7.47
2023-03-20T02:39:21.948Z,8.60
2023-03-20T02:41:58.088Z,6.78
2023-03-20T02:44:34.924Z,6.97
2023-03-20T02:47:09.726Z,10.60
2023-03-20T02:49:55.913Z,7.33
2023-03-20T02:52:37.346Z,7.30
2023-03-20T02:55:17.655Z,8.47
2023-03-20T02:57:54.968Z,8.93
2023-03-20T03:00:30.463Z,8.32
2023-03-20T03:03:07.655Z,8.40
2023-03-20T03:05:41.464Z,6.80
2023-03-20T03:08:14.912Z,7.67
2023-03-20T03:10:50.544Z,7.30
2023-03-20T03:13:22.592Z,7.47
2023-03-20T03:15:55.372Z,9.60
2023-03-20T03:18:27.219Z,7.67
2023-03-20T03:21:00.714Z,8.10
2023-03-20T03:24:39.257Z,10.43
2023-03-20T03:27:19.936Z,6.20
2023-03-20T03:29:54.226Z,7.43
2023-03-20T03:32:35.868Z,9.95
2023-03-20T03:35:54.984Z,10.67
2023-03-20T03:38:31.672Z,10.40
2023-03-20T03:41:19.759Z,10.33
2023-03-20T03:43:57.249Z,10.47
2023-03-20T03:46:34.378Z,11.32
2023-03-20T03:49:06.643Z,8.80
2023-03-20T03:51:39.738Z,8.68
2023-03-20T03:54:17.287Z,9.48
2023-03-20T03:56:54.610Z,9.25
2023-03-20T03:59:29.581Z,9.33
2023-03-20T04:02:03.768Z,9.40
2023-03-20T04:04:35.384Z,9.10
2023-03-20T04:07:04.575Z,9.23
2023-03-20T04:09:33.766Z,8.20
2023-03-20T04:12:03.048Z,9.95
2023-03-20T04:14:33.640Z,9.13
2023-03-20T04:17:02.710Z,14.90
2023-03-20T04:19:34.325Z,11.18
2023-03-20T04:22:03.810Z,9.00
2023-03-20T04:24:33.224Z,10.02
2023-03-20T04:27:02.349Z,11.38
2023-03-20T04:29:32.883Z,13.98
2023-03-20T04:32:20.074Z,10.32
2023-03-20T04:35:10.852Z,13.27
2023-03-20T04:38:06.438Z,9.65
2023-03-20T04:40:37.250Z,12.63
2023-03-20T04:43:06.721Z,9.38
2023-03-20T04:45:38.180Z,10.77
2023-03-20T04:48:10.377Z,15.30
2023-03-20T04:50:39.742Z,10.73
2023-03-20T04:53:08.951Z,10.30
2023-03-20T04:55:38.128Z,12.73
2023-03-20T04:58:07.292Z,14.43
2023-03-20T05:00:37.958Z,11.18
2023-03-20T05:03:12.344Z,15.35
2023-03-20T05:05:42.360Z,13.10
2023-03-20T05:08:11.692Z,14.35
2023-03-20T05:10:41.893Z,10.88
2023-03-20T05:13:34.105Z,12.82
2023-03-20T05:16:40.253Z,23.33
2023-03-20T05:19:37.245Z,13.40
2023-03-20T05:22:22.489Z,10.40
2023-03-20T05:25:06.157Z,13.97
2023-03-20T05:27:55.567Z,18.50
2023-03-20T05:30:53.384Z,10.82
2023-03-20T05:33:38.913Z,13.70
2023-03-20T05:36:14.683Z,15.55
2023-03-20T05:38:59.512Z,18.88
2023-03-20T05:41:47.552Z,12.60
2023-03-20T05:44:34.764Z,15.93
2023-03-20T05:47:33.202Z,16.00
2023-03-20T05:50:36.304Z,13.85
2023-03-20T05:53:10.935Z,14.40
2023-03-20T05:55:45.973Z,16.95
2023-03-20T05:58:33.679Z,18.88
2023-03-20T06:01:02.728Z,15.10
2023-03-20T06:03:52.227Z,16.40
2023-03-20T06:07:07.804Z,21.05
2023-03-20T06:09:37.996Z,21.17
2023-03-20T06:12:12.680Z,18.67
2023-03-20T06:14:42.441Z,25.40
2023-03-20T06:17:11.777Z,15.88
2023-03-20T06:19:40.904Z,18.08
2023-03-20T06:22:11.600Z,20.13
2023-03-20T06:24:41.140Z,19.95
2023-03-20T06:27:10.632Z,20.50
2023-03-20T06:29:40.895Z,21.05
2023-03-20T06:32:17.767Z,24.95
2023-03-20T06:34:50.351Z,25.85
2023-03-20T06:37:22.153Z,25.88
2023-03-20T06:39:51.413Z,28.40
2023-03-20T06:42:21.149Z,31.27
2023-03-20T06:44:51.089Z,29.88
2023-03-20T06:47:55.219Z,36.40
2023-03-20T06:50:24.666Z,42.38
2023-03-20T06:52:55.789Z,37.80
2023-03-20T06:55:51.750Z,33.05
2023-03-20T06:58:23.010Z,34.88
2023-03-20T07:00:54.690Z,39.25
2023-03-20T07:03:23.762Z,31.55
2023-03-20T07:05:53.336Z,43.72
2023-03-20T07:08:25.547Z,41.00
2023-03-20T07:10:55.081Z,49.13
2023-03-20T07:13:24.231Z,37.85
2023-03-20T07:16:03.659Z,33.80
2023-03-20T07:18:39.378Z,45.05
2023-03-20T07:21:09.094Z,39.47
2023-03-20T07:23:40.305Z,42.83
2023-03-20T07:26:09.718Z,36.13
2023-03-20T07:28:38.812Z,33.53
2023-03-20T07:31:22.125Z,37.65
2023-03-20T07:33:56.196Z,42.25
2023-03-20T07:36:27.393Z,41.97
2023-03-20T07:38:57.830Z,40.35
2023-03-20T07:41:32.879Z,33.28
2023-03-20T07:44:10.567Z,38.67
2023-03-20T07:47:08.966Z,40.15
2023-03-20T07:49:38.988Z,35.85
2023-03-20T07:52:10.622Z,33.30
2023-03-20T07:54:41.054Z,36.45
2023-03-20T07:57:10.166Z,44.28
2023-03-20T07:59:39.244Z,41.72
2023-03-20T08:02:09.193Z,38.88
2023-03-20T08:04:38.353Z,39.83
2023-03-20T08:07:07.521Z,36.70
2023-03-20T08:09:37.188Z,36.63
2023-03-20T08:12:08.259Z,35.35
2023-03-20T08:14:38.761Z,32.08
2023-03-20T08:17:15.027Z,33.15
2023-03-20T08:19:46.037Z,39.13
2023-03-20T08:22:15.309Z,37.05
2023-03-20T08:24:44.494Z,39.67
2023-03-20T08:27:14.949Z,37.63
2023-03-20T08:29:44.166Z,39.05
2023-03-20T08:32:13.150Z,28.90
2023-03-20T08:34:42.289Z,31.65
2023-03-20T08:37:12.458Z,31.75
2023-03-20T08:39:41.730Z,31.88
2023-03-20T08:42:10.845Z,31.90
2023-03-20T08:44:41.352Z,33.40
2023-03-20T08:47:12.250Z,29.25
2023-03-20T08:49:41.226Z,33.97
2023-03-20T08:52:10.325Z,30.07
2023-03-20T08:54:39.352Z,28.83
2023-03-20T08:57:08.541Z,28.63
2023-03-20T09:03:28.987Z,25.63
2023-03-20T09:05:58.061Z,26.87
2023-03-20T09:08:27.110Z,23.13
2023-03-20T09:11:00.448Z,25.10
2023-03-20T09:13:30.561Z,35.90
2023-03-20T09:15:59.683Z,24.27
2023-03-20T09:18:30.401Z,22.30
2023-03-20T09:24:44.141Z,27.80
2023-03-20T09:27:14.080Z,23.53
2023-03-20T09:29:43.630Z,28.17
2023-03-20T09:32:14.340Z,23.47
2023-03-20T09:34:56.555Z,21.03
2023-03-20T09:37:25.801Z,20.57
2023-03-20T09:39:54.941Z,23.10
2023-03-20T09:42:57.394Z,22.80
2023-03-20T09:45:43.678Z,23.20
2023-03-20T09:48:20.400Z,16.93
2023-03-20T09:50:59.438Z,16.50
2023-03-20T09:53:34.892Z,18.67
2023-03-20T09:56:24.822Z,15.50
2023-03-20T09:58:57.444Z,15.70
2023-03-20T10:01:31.488Z,18.37
2023-03-20T10:04:02.901Z,14.97
2023-03-20T10:06:34.381Z,14.13
2023-03-20T10:09:13.412Z,16.90
2023-03-20T10:12:09.997Z,14.70
2023-03-20T10:14:51.034Z,12.90
2023-03-20T10:17:33.002Z,15.60
2023-03-20T10:20:16.489Z,16.77
2023-03-20T10:22:54.170Z,14.70
2023-03-20T10:25:29.416Z,20.20
2023-03-20T10:28:04.360Z,15.30
2023-03-20T10:30:48.625Z,15.00
2023-03-20T10:33:54.651Z,11.40
2023-03-20T10:36:52.932Z,16.07
2023-03-20T10:39:36.957Z,15.57
2023-03-20T10:42:14.971Z,15.87
2023-03-20T10:44:50.556Z,15.50
2023-03-20T10:47:26.223Z,16.40
2023-03-20T10:50:04.341Z,12.60
2023-03-20T10:52:36.840Z,14.87
2023-03-20T10:55:12.564Z,13.33
2023-03-20T10:57:47.676Z,11.53
2023-03-20T11:00:21.596Z,9.87
2023-03-20T11:02:50.973Z,11.50
2023-03-20T11:05:26.813Z,15.43
2023-03-20T11:08:05.018Z,13.50
2023-03-20T11:10:39.640Z,11.00
2023-03-20T11:13:19.554Z,11.90
2023-03-20T11:15:49.087Z,12.77
2023-03-20T11:18:18.358Z,13.93
2023-03-20T11:20:50.885Z,13.50
2023-03-20T11:23:21.790Z,10.20
2023-03-20T11:25:59.111Z,12.07
2023-03-20T11:28:34.166Z,8.57
2023-03-20T11:31:07.504Z,12.80
2023-03-20T11:33:40.493Z,18.33
2023-03-20T11:36:21.017Z,18.63
2023-03-20T11:38:51.169Z,14.40
2023-03-20T11:41:26.097Z,15.33
2023-03-20T11:43:55.939Z,13.13
2023-03-20T11:46:29.096Z,11.90
2023-03-20T11:49:17.512Z,10.43
2023-03-20T11:51:46.769Z,9.83
2023-03-20T11:54:20.726Z,16.50
2023-03-20T11:56:58.900Z,12.00
2023-03-20T11:59:33.263Z,9.07
2023-03-20T12:02:04.419Z,19.37
2023-03-20T12:04:37.676Z,11.97
2023-03-20T12:07:13.325Z,12.60
2023-03-20T12:09:47.493Z,11.40
2023-03-20T12:12:28.937Z,12.37
2023-03-20T12:15:05.812Z,15.13
2023-03-20T12:17:43.834Z,12.77
2023-03-20T12:20:29.203Z,13.33
2023-03-20T12:23:18.163Z,14.80
2023-03-20T12:25:56.801Z,12.83
2023-03-20T12:28:34.298Z,10.93
2023-03-20T12:31:28.139Z,13.77
2023-03-20T12:34:01.518Z,14.97
2023-03-20T12:36:35.513Z,13.70
2023-03-20T12:39:16.386Z,12.30
2023-03-20T12:41:59.796Z,16.57
2023-03-20T12:44:40.874Z,16.10
2023-03-20T12:47:29.584Z,12.93
2023-03-20T12:50:11.776Z,11.97
2023-03-20T12:52:50.022Z,17.07
2023-03-20T12:55:30.183Z,14.33
2023-03-20T12:58:18.336Z,19.93
2023-03-20T13:00:55.717Z,16.93
2023-03-20T13:03:46.997Z,19.50
2023-03-20T13:06:21.600Z,16.97
2023-03-20T13:09:31.914Z,16.03
2023-03-20T13:12:09.369Z,17.50
2023-03-20T13:14:46.518Z,20.13
2023-03-20T13:17:25.012Z,18.10
2023-03-20T13:20:10.976Z,15.50
2023-03-20T13:22:49.790Z,20.47
2023-03-20T13:25:32.050Z,21.33
2023-03-20T13:28:07.889Z,18.37
2023-03-20T13:30:44.384Z,18.40
2023-03-20T13:33:31.957Z,20.50
2023-03-20T13:36:08.591Z,18.00
2023-03-20T13:39:11.735Z,15.97
2023-03-20T13:41:41.480Z,23.80
2023-03-20T13:44:15.299Z,15.13
2023-03-20T13:47:13.687Z,17.47
2023-03-20T13:49:53.524Z,16.10
2023-03-20T13:52:25.056Z,18.93
2023-03-20T13:55:18.194Z,19.63
2023-03-20T13:58:04.660Z,18.03
2023-03-20T14:00:40.142Z,15.57
2023-03-20T14:03:25.701Z,15.00
2023-03-20T14:05:57.007Z,17.63
2023-03-20T14:08:34.432Z,21.07
2023-03-20T14:11:16.704Z,20.13
2023-03-20T14:13:48.811Z,18.60
2023-03-20T14:16:20.883Z,15.03
2023-03-20T14:18:51.681Z,18.30
2023-03-20T14:21:25.169Z,18.80
2023-03-20T14:24:03.717Z,17.70
2023-03-20T14:26:36.720Z,22.10
2023-03-20T14:29:32.677Z,20.33
2023-03-20T14:32:06.854Z,20.37
2023-03-20T14:34:50.285Z,24.27
2023-03-20T14:37:38.941Z,21.20
2023-03-20T14:40:19.166Z,19.60
2023-03-20T14:42:56.012Z,18.57
2023-03-20T14:45:43.272Z,25.10
2023-03-20T14:48:30.343Z,19.70
2023-03-20T14:51:23.909Z,21.07
2023-03-20T14:54:44.255Z,17.60
2023-03-20T14:57:22.583Z,19.00
2023-03-20T14:59:51.895Z,19.87
2023-03-20T15:02:28.918Z,22.93
2023-03-20T15:04:58.579Z,20.17
2023-03-20T15:07:30.661Z,18.70
2023-03-20T15:10:03.086Z,23.07
2023-03-20T15:12:38.614Z,22.70
2023-03-20T15:15:09.782Z,19.20
2023-03-20T15:17:40.874Z,22.77
2023-03-20T15:20:17.053Z,21.83
2023-03-20T15:22:50.922Z,27.27
2023-03-20T15:25:21.591Z,21.90
2023-03-20T15:27:52.902Z,22.10
2023-03-20T15:30:23.984Z,20.83
2023-03-20T15:32:56.425Z,21.43
2023-03-20T15:35:28.601Z,17.43
2023-03-20T15:38:05.713Z,21.03
2023-03-20T15:40:50.177Z,18.83
2023-03-20T15:43:24.748Z,18.27
2023-03-20T15:46:14.128Z,26.97
2023-03-20T15:48:49.851Z,19.63
2023-03-20T15:51:20.289Z,21.90
2023-03-20T15:53:50.506Z,19.33
2023-03-20T15:56:21.441Z,20.80
2023-03-20T15:58:54.043Z,23.00
2023-03-20T16:01:25.815Z,16.90
2023-03-20T16:03:59.295Z,20.97
2023-03-20T16:06:29.459Z,25.47
2023-03-20T16:09:01.497Z,27.17
2023-03-20T16:11:39.964Z,22.13
2023-03-20T16:14:14.963Z,20.27
2023-03-20T16:16:45.058Z,22.20
2023-03-20T16:19:19.194Z,18.30
2023-03-20T16:21:52.846Z,22.50
2023-03-20T16:24:27.268Z,21.97
2023-03-20T16:26:56.957Z,17.70
2023-03-20T16:30:22.129Z,20.10
2023-03-20T16:32:59.523Z,21.10
2023-03-20T16:35:32.031Z,19.63
2023-03-20T16:38:03.626Z,20.13
2023-03-20T16:40:34.388Z,19.40
2023-03-20T16:43:13.821Z,21.97
2023-03-20T16:45:46.169Z,17.63
2023-03-20T16:48:35.098Z,20.40
2023-03-20T16:51:10.230Z,23.40
2023-03-20T16:53:43.598Z,21.90
2023-03-20T16:56:18.398Z,16.90
2023-03-20T16:58:48.461Z,21.30
2023-03-20T17:01:21.313Z,31.13
2023-03-20T17:03:54.258Z,23.00
2023-03-20T17:06:36.941Z,19.40
2023-03-20T17:09:24.780Z,18.47
2023-03-20T17:12:01.639Z,22.20
2023-03-20T17:14:30.689Z,25.47
2023-03-20T17:17:00.499Z,27.60
2023-03-20T17:19:33.256Z,23.60
2023-03-20T17:22:05.865Z,28.07
2023-03-20T17:24:34.942Z,22.10
2023-03-20T17:27:04.096Z,26.33
2023-03-20T17:29:33.390Z,21.23
2023-03-20T17:32:02.514Z,25.00
2023-03-20T17:34:33.110Z,20.80
2023-03-20T17:37:03.540Z,22.23
2023-03-20T17:39:32.880Z,31.20
2023-03-20T17:42:03.928Z,24.00
2023-03-20T17:44:33.140Z,17.10
2023-03-20T17:47:02.604Z,27.17
2023-03-20T17:49:33.016Z,27.07
2023-03-20T17:52:02.203Z,19.87
2023-03-20T17:54:31.508Z,28.03
2023-03-20T17:57:00.657Z,21.10
2023-03-20T17:59:31.304Z,23.20
2023-03-20T18:02:00.504Z,20.43
2023-03-20T18:04:29.648Z,20.63
2023-03-20T18:07:00.159Z,19.93
2023-03-20T18:09:30.759Z,23.53
2023-03-20T18:12:06.145Z,21.15
2023-03-20T18:14:39.543Z,21.70
2023-03-20T18:17:21.359Z,18.33
2023-03-20T18:20:13.775Z,22.07
2023-03-20T18:22:48.253Z,22.97
2023-03-20T18:25:29.492Z,23.60
2023-03-20T18:28:14.695Z,19.30
2023-03-20T18:31:01.249Z,27.20
2023-03-20T18:33:40.185Z,22.67
2023-03-20T18:36:20.423Z,22.97
2023-03-20T18:38:53.752Z,19.30
2023-03-20T18:41:26.426Z,20.93
2023-03-20T18:44:03.313Z,19.80
2023-03-20T18:46:33.124Z,26.77
2023-03-20T18:49:03.246Z,22.63
2023-03-20T18:51:38.573Z,20.57
2023-03-20T18:54:10.172Z,18.90
2023-03-20T18:56:46.106Z,21.40
2023-03-20T18:59:21.465Z,19.90
2023-03-20T19:01:51.771Z,24.20
2023-03-20T19:04:23.230Z,25.10
2023-03-20T19:06:52.950Z,17.97
2023-03-20T19:09:23.469Z,17.27
2023-03-20T19:11:52.562Z,18.27
2023-03-20T19:14:21.504Z,17.63
2023-03-20T19:16:51.150Z,22.47
2023-03-20T19:19:20.133Z,20.27
2023-03-20T19:21:49.139Z,23.27
2023-03-20T19:24:21.627Z,15.80
2023-03-20T19:26:57.096Z,20.83
2023-03-20T19:29:26.264Z,26.20
2023-03-20T19:31:58.732Z,16.83
2023-03-20T19:35:10.937Z,19.07
2023-03-20T19:37:17.063Z,17.83
2023-03-20T19:39:46.051Z,16.37
2023-03-20T19:42:50.746Z,17.93
2023-03-20T19:45:13.741Z,19.40
2023-03-20T19:47:44.739Z,26.00
2023-03-20T19:50:30.285Z,20.30
2023-03-20T19:53:05.476Z,16.23
2023-03-20T19:56:39.358Z,20.47
2023-03-20T19:59:16.320Z,23.13
2023-03-20T20:01:56.712Z,21.73
2023-03-20T20:04:28.694Z,19.33
2023-03-20T20:07:40.880Z,17.30
2023-03-20T20:09:56.212Z,21.30
2023-03-20T20:12:27.373Z,18.37
2023-03-20T20:15:04.547Z,22.23
2023-03-20T20:17:34.802Z,21.17
2023-03-20T20:20:07.219Z,22.33
2023-03-20T20:22:41.542Z,22.50
2023-03-20T20:25:12.922Z,18.00
2023-03-20T20:27:49.410Z,20.63
2023-03-20T20:30:22.479Z,24.27
2023-03-20T20:33:02.985Z,22.88
2023-03-20T20:35:56.406Z,21.17
2023-03-20T20:38:50.051Z,24.80
2023-03-20T20:41:27.961Z,17.33
2023-03-20T20:44:16.378Z,18.23
2023-03-20T20:46:52.630Z,20.60
2023-03-20T20:49:23.926Z,23.10
2023-03-20T20:51:54.102Z,26.43
2023-03-20T20:54:24.667Z,26.92
2023-03-20T20:56:55.049Z,18.95
2023-03-20T20:59:26.020Z,22.95
2023-03-20T21:02:02.003Z,18.48
2023-03-20T21:04:32.565Z,17.70
2023-03-20T21:07:09.858Z,20.38
2023-03-20T21:09:41.915Z,19.95
2023-03-20T21:12:30.486Z,18.70
2023-03-20T21:15:05.393Z,16.33
2023-03-20T21:17:39.166Z,18.40
2023-03-20T21:20:17.888Z,17.90
2023-03-20T21:22:49.199Z,18.33
2023-03-20T21:25:36.330Z,16.70
2023-03-20T21:29:01.652Z,14.10
2023-03-20T21:31:31.646Z,18.23
2023-03-20T21:34:05.185Z,20.37
2023-03-20T21:36:35.207Z,15.98
2023-03-20T21:39:09.327Z,15.63
2023-03-20T21:41:40.217Z,18.40
2023-03-20T21:44:16.636Z,18.97
2023-03-20T21:47:19.102Z,15.35
2023-03-20T21:53:23.870Z,22.20
2023-03-20T22:04:45.016Z,22.00
2023-03-20T22:07:23.915Z,19.50
2023-03-20T22:10:11.097Z,15.55
2023-03-20T22:13:12.423Z,16.40
2023-03-20T22:15:46.265Z,21.10
2023-03-20T22:18:28.634Z,14.95
2023-03-20T22:21:22.357Z,17.70
2023-03-20T22:27:13.021Z,32.45
2023-03-20T22:29:53.939Z,17.88
2023-03-20T22:32:40.929Z,18.83
2023-03-20T22:38:34.506Z,16.13
2023-03-20T22:46:41.794Z,21.77
2023-03-20T22:49:01.127Z,16.08
2023-03-20T22:51:38.611Z,14.82
2023-03-20T22:54:12.960Z,22.55
2023-03-20T22:56:43.445Z,18.92
2023-03-20T22:59:12.679Z,13.13
2023-03-20T23:01:41.812Z,22.27
2023-03-20T23:08:48.687Z,13.27
2023-03-20T23:11:20.421Z,13.50
2023-03-20T23:13:53.537Z,11.68
2023-03-20T23:16:22.924Z,15.18
2023-03-20T23:18:52.325Z,13.65
2023-03-20T23:21:21.547Z,12.40
2023-03-20T23:23:51.223Z,11.60
2023-03-20T23:26:22.017Z,15.88
2023-03-20T23:28:53.869Z,9.95
2023-03-20T23:31:25.688Z,12.02
2023-03-20T23:33:56.838Z,10.88
2023-03-20T23:36:42.875Z,15.00
2023-03-20T23:39:14.373Z,11.00
2023-03-20T23:42:05.000Z,14.68
2023-03-20T23:44:36.228Z,10.65
2023-03-20T23:47:17.729Z,10.57
2023-03-20T23:49:49.104Z,13.85
2023-03-20T23:52:21.152Z,11.20
2023-03-20T23:54:50.481Z,10.45
2023-03-20T23:57:19.606Z,13.32
2023-03-20T23:59:53.175Z,11.90
